sensor_id;sensor_type;location;lat;lon;timestamp;P1;durP1;ratioP1;P2;durP2;ratioP2
78143;SDS011;67394;52.522;13.622;2023-07-20T00:01:48;5.65;;;4.05;;
78143;SDS011;67394;52.522;13.622;2023-07-20T00:04:14;4.82;;;2.95;;
78143;SDS011;67394;52.522;13.622;2023-07-20T00:06:41;4.85;;;3.20;;
78143;SDS011;67394;52.522;13.622;2023-07-20T00:09:07;4.70;;;3.63;;
78143;SDS011;67394;52.522;13.622;2023-07-20T00:11:35;5.25;;;3.78;;
78143;SDS011;67394;52.522;13.622;2023-07-20T00:14:03;4.60;;;3.50;;
78143;SDS011;67394;52.522;13.622;2023-07-20T00:16:30;4.03;;;3.63;;
78143;SDS011;67394;52.522;13.622;2023-07-20T00:18:56;6.57;;;3.83;;
78143;SDS011;67394;52.522;13.622;2023-07-20T00:21:23;4.90;;;4.00;;
78143;SDS011;67394;52.522;13.622;2023-07-20T00:23:49;6.25;;;3.88;;
78143;SDS011;67394;52.522;13.622;2023-07-20T00:26:16;7.97;;;3.88;;
78143;SDS011;67394;52.522;13.622;2023-07-20T00:28:42;4.35;;;3.65;;
78143;SDS011;67394;52.522;13.622;2023-07-20T00:31:09;5.07;;;4.53;;
78143;SDS011;67394;52.522;13.622;2023-07-20T00:33:35;4.93;;;3.72;;
78143;SDS011;67394;52.522;13.622;2023-07-20T00:36:02;4.70;;;3.53;;
78143;SDS011;67394;52.522;13.622;2023-07-20T00:38:28;5.95;;;4.05;;
78143;SDS011;67394;52.522;13.622;2023-07-20T00:40:55;5.03;;;3.92;;
78143;SDS011;67394;52.522;13.622;2023-07-20T00:43:21;5.75;;;4.00;;
78143;SDS011;67394;52.522;13.622;2023-07-20T00:45:48;4.57;;;3.53;;
78143;SDS011;67394;52.522;13.622;2023-07-20T00:48:14;4.65;;;3.65;;
78143;SDS011;67394;52.522;13.622;2023-07-20T00:50:41;4.93;;;4.30;;
78143;SDS011;67394;52.522;13.622;2023-07-20T00:53:08;4.85;;;3.85;;
78143;SDS011;67394;52.522;13.622;2023-07-20T00:55:34;5.57;;;4.05;;
78143;SDS011;67394;52.522;13.622;2023-07-20T01:00:27;6.18;;;3.78;;
78143;SDS011;67394;52.522;13.622;2023-07-20T01:02:54;4.05;;;3.42;;
78143;SDS011;67394;52.522;13.622;2023-07-20T01:07:52;5.78;;;3.97;;
78143;SDS011;67394;52.522;13.622;2023-07-20T01:13:46;4.85;;;3.60;;
78143;SDS011;67394;52.522;13.622;2023-07-20T01:16:13;4.93;;;4.03;;
78143;SDS011;67394;52.522;13.622;2023-07-20T01:18:39;5.18;;;4.13;;
78143;SDS011;67394;52.522;13.622;2023-07-20T01:21:07;4.28;;;3.50;;
78143;SDS011;67394;52.522;13.622;2023-07-20T01:23:52;5.45;;;3.80;;
78143;SDS011;67394;52.522;13.622;2023-07-20T01:26:32;5.20;;;3.95;;
78143;SDS011;67394;52.522;13.622;2023-07-20T01:31:46;5.75;;;3.90;;
78143;SDS011;67394;52.522;13.622;2023-07-20T01:34:18;6.63;;;4.43;;
78143;SDS011;67394;52.522;13.622;2023-07-20T01:36:45;5.85;;;4.20;;
78143;SDS011;67394;52.522;13.622;2023-07-20T01:39:13;5.22;;;3.67;;
78143;SDS011;67394;52.522;13.622;2023-07-20T01:41:40;5.63;;;4.45;;
78143;SDS011;67394;52.522;13.622;2023-07-20T01:44:08;5.40;;;3.95;;
78143;SDS011;67394;52.522;13.622;2023-07-20T01:46:34;6.60;;;4.30;;
78143;SDS011;67394;52.522;13.622;2023-07-20T01:49:02;5.68;;;3.78;;
78143;SDS011;67394;52.522;13.622;2023-07-20T01:51:28;5.50;;;4.32;;
78143;SDS011;67394;52.522;13.622;2023-07-20T01:53:55;5.15;;;3.88;;
78143;SDS011;67394;52.522;13.622;2023-07-20T01:56:21;4.50;;;3.88;;
78143;SDS011;67394;52.522;13.622;2023-07-20T01:58:48;5.65;;;4.32;;
78143;SDS011;67394;52.522;13.622;2023-07-20T02:01:14;5.78;;;4.43;;
78143;SDS011;67394;52.522;13.622;2023-07-20T02:03:41;8.45;;;4.70;;
78143;SDS011;67394;52.522;13.622;2023-07-20T02:06:07;7.47;;;4.40;;
78143;SDS011;67394;52.522;13.622;2023-07-20T02:08:34;6.07;;;4.75;;
78143;SDS011;67394;52.522;13.622;2023-07-20T02:11:00;7.15;;;5.20;;
78143;SDS011;67394;52.522;13.622;2023-07-20T02:13:27;5.28;;;4.78;;
78143;SDS011;67394;52.522;13.622;2023-07-20T02:15:53;6.13;;;4.82;;
78143;SDS011;67394;52.522;13.622;2023-07-20T02:18:20;5.38;;;4.13;;
78143;SDS011;67394;52.522;13.622;2023-07-20T02:20:46;8.02;;;4.80;;
78143;SDS011;67394;52.522;13.622;2023-07-20T02:23:13;5.93;;;4.72;;
78143;SDS011;67394;52.522;13.622;2023-07-20T02:25:40;10.60;;;4.95;;
78143;SDS011;67394;52.522;13.622;2023-07-20T02:28:07;5.45;;;4.45;;
78143;SDS011;67394;52.522;13.622;2023-07-20T02:30:33;9.15;;;4.78;;
78143;SDS011;67394;52.522;13.622;2023-07-20T02:33:03;6.32;;;5.03;;
78143;SDS011;67394;52.522;13.622;2023-07-20T02:35:30;6.47;;;5.03;;
78143;SDS011;67394;52.522;13.622;2023-07-20T02:37:56;6.93;;;5.18;;
78143;SDS011;67394;52.522;13.622;2023-07-20T02:40:22;5.82;;;4.78;;
78143;SDS011;67394;52.522;13.622;2023-07-20T02:42:49;6.80;;;4.95;;
78143;SDS011;67394;52.522;13.622;2023-07-20T02:45:15;7.47;;;5.22;;
78143;SDS011;67394;52.522;13.622;2023-07-20T02:47:42;7.97;;;5.72;;
78143;SDS011;67394;52.522;13.622;2023-07-20T02:50:09;6.28;;;5.20;;
78143;SDS011;67394;52.522;13.622;2023-07-20T02:52:35;6.63;;;5.45;;
78143;SDS011;67394;52.522;13.622;2023-07-20T02:55:02;6.95;;;5.20;;
78143;SDS011;67394;52.522;13.622;2023-07-20T02:57:28;7.22;;;5.35;;
78143;SDS011;67394;52.522;13.622;2023-07-20T02:59:55;6.65;;;4.72;;
78143;SDS011;67394;52.522;13.622;2023-07-20T03:02:21;6.65;;;5.13;;
78143;SDS011;67394;52.522;13.622;2023-07-20T03:04:47;6.15;;;4.90;;
78143;SDS011;67394;52.522;13.622;2023-07-20T03:07:14;6.28;;;4.60;;
78143;SDS011;67394;52.522;13.622;2023-07-20T03:09:40;8.70;;;6.30;;
78143;SDS011;67394;52.522;13.622;2023-07-20T03:12:07;10.60;;;6.63;;
78143;SDS011;67394;52.522;13.622;2023-07-20T03:14:34;10.15;;;6.53;;
78143;SDS011;67394;52.522;13.622;2023-07-20T03:17:00;9.40;;;6.90;;
78143;SDS011;67394;52.522;13.622;2023-07-20T03:19:27;8.68;;;6.15;;
78143;SDS011;67394;52.522;13.622;2023-07-20T03:21:53;9.88;;;6.70;;
78143;SDS011;67394;52.522;13.622;2023-07-20T03:24:20;10.02;;;6.85;;
78143;SDS011;67394;52.522;13.622;2023-07-20T03:26:46;9.68;;;7.20;;
78143;SDS011;67394;52.522;13.622;2023-07-20T03:29:12;12.00;;;7.60;;
78143;SDS011;67394;52.522;13.622;2023-07-20T03:31:39;7.20;;;6.03;;
78143;SDS011;67394;52.522;13.622;2023-07-20T03:34:05;10.93;;;7.63;;
78143;SDS011;67394;52.522;13.622;2023-07-20T03:36:32;9.90;;;7.25;;
78143;SDS011;67394;52.522;13.622;2023-07-20T03:38:58;12.10;;;7.78;;
78143;SDS011;67394;52.522;13.622;2023-07-20T03:41:25;7.00;;;5.25;;
78143;SDS011;67394;52.522;13.622;2023-07-20T03:43:51;8.82;;;6.35;;
78143;SDS011;67394;52.522;13.622;2023-07-20T03:46:17;10.43;;;7.32;;
78143;SDS011;67394;52.522;13.622;2023-07-20T03:48:44;10.63;;;7.20;;
78143;SDS011;67394;52.522;13.622;2023-07-20T03:51:10;11.32;;;6.88;;
78143;SDS011;67394;52.522;13.622;2023-07-20T03:53:37;10.18;;;7.80;;
78143;SDS011;67394;52.522;13.622;2023-07-20T03:56:03;9.55;;;6.78;;
78143;SDS011;67394;52.522;13.622;2023-07-20T03:58:30;8.18;;;6.82;;
78143;SDS011;67394;52.522;13.622;2023-07-20T04:00:57;8.27;;;6.60;;
78143;SDS011;67394;52.522;13.622;2023-07-20T04:03:23;10.13;;;6.93;;
78143;SDS011;67394;52.522;13.622;2023-07-20T04:05:50;11.93;;;7.80;;
78143;SDS011;67394;52.522;13.622;2023-07-20T04:08:17;10.43;;;6.93;;
78143;SDS011;67394;52.522;13.622;2023-07-20T04:13:11;10.13;;;6.45;;
78143;SDS011;67394;52.522;13.622;2023-07-20T04:15:37;11.02;;;7.03;;
78143;SDS011;67394;52.522;13.622;2023-07-20T04:18:04;11.90;;;7.25;;
78143;SDS011;67394;52.522;13.622;2023-07-20T04:20:30;10.20;;;7.03;;
78143;SDS011;67394;52.522;13.622;2023-07-20T04:22:57;9.30;;;6.70;;
78143;SDS011;67394;52.522;13.622;2023-07-20T04:25:23;13.13;;;6.88;;
78143;SDS011;67394;52.522;13.622;2023-07-20T04:27:50;9.73;;;6.50;;
78143;SDS011;67394;52.522;13.622;2023-07-20T04:30:17;11.15;;;6.90;;
78143;SDS011;67394;52.522;13.622;2023-07-20T04:32:44;10.75;;;6.75;;
78143;SDS011;67394;52.522;13.622;2023-07-20T04:35:10;9.63;;;6.68;;
78143;SDS011;67394;52.522;13.622;2023-07-20T04:37:37;10.25;;;6.50;;
78143;SDS011;67394;52.522;13.622;2023-07-20T04:40:03;9.75;;;5.95;;
78143;SDS011;67394;52.522;13.622;2023-07-20T04:42:30;13.70;;;7.88;;
78143;SDS011;67394;52.522;13.622;2023-07-20T04:44:57;8.52;;;5.85;;
78143;SDS011;67394;52.522;13.622;2023-07-20T04:47:23;11.50;;;7.43;;
78143;SDS011;67394;52.522;13.622;2023-07-20T04:49:50;9.63;;;6.82;;
78143;SDS011;67394;52.522;13.622;2023-07-20T04:52:16;9.93;;;6.70;;
78143;SDS011;67394;52.522;13.622;2023-07-20T04:57:10;11.05;;;6.80;;
78143;SDS011;67394;52.522;13.622;2023-07-20T04:59:38;14.75;;;7.35;;
78143;SDS011;67394;52.522;13.622;2023-07-20T05:02:04;10.60;;;6.50;;
78143;SDS011;67394;52.522;13.622;2023-07-20T05:04:31;12.18;;;6.88;;
78143;SDS011;67394;52.522;13.622;2023-07-20T05:07:04;9.20;;;6.78;;
78143;SDS011;67394;52.522;13.622;2023-07-20T05:09:31;9.77;;;6.93;;
78143;SDS011;67394;52.522;13.622;2023-07-20T05:11:57;11.02;;;6.65;;
78143;SDS011;67394;52.522;13.622;2023-07-20T05:14:23;9.43;;;6.57;;
78143;SDS011;67394;52.522;13.622;2023-07-20T05:16:50;11.40;;;6.55;;
78143;SDS011;67394;52.522;13.622;2023-07-20T05:19:16;9.05;;;5.93;;
78143;SDS011;67394;52.522;13.622;2023-07-20T05:21:43;11.73;;;6.10;;
78143;SDS011;67394;52.522;13.622;2023-07-20T05:24:09;10.75;;;6.22;;
78143;SDS011;67394;52.522;13.622;2023-07-20T05:26:35;10.43;;;7.18;;
78143;SDS011;67394;52.522;13.622;2023-07-20T05:29:02;9.43;;;6.35;;
78143;SDS011;67394;52.522;13.622;2023-07-20T05:31:28;11.93;;;6.88;;
78143;SDS011;67394;52.522;13.622;2023-07-20T05:33:55;11.52;;;6.57;;
78143;SDS011;67394;52.522;13.622;2023-07-20T05:36:21;8.73;;;5.85;;
78143;SDS011;67394;52.522;13.622;2023-07-20T05:41:14;8.32;;;5.38;;
78143;SDS011;67394;52.522;13.622;2023-07-20T05:43:41;8.48;;;5.82;;
78143;SDS011;67394;52.522;13.622;2023-07-20T05:46:07;7.13;;;5.28;;
78143;SDS011;67394;52.522;13.622;2023-07-20T05:48:34;7.50;;;5.70;;
78143;SDS011;67394;52.522;13.622;2023-07-20T05:51:00;7.03;;;5.05;;
78143;SDS011;67394;52.522;13.622;2023-07-20T05:53:26;6.22;;;4.40;;
78143;SDS011;67394;52.522;13.622;2023-07-20T05:55:53;8.40;;;5.20;;
78143;SDS011;67394;52.522;13.622;2023-07-20T05:58:20;8.55;;;5.15;;
78143;SDS011;67394;52.522;13.622;2023-07-20T06:00:47;7.15;;;4.88;;
78143;SDS011;67394;52.522;13.622;2023-07-20T06:03:15;5.60;;;4.40;;
78143;SDS011;67394;52.522;13.622;2023-07-20T06:08:08;4.72;;;4.07;;
78143;SDS011;67394;52.522;13.622;2023-07-20T06:10:35;6.82;;;4.68;;
78143;SDS011;67394;52.522;13.622;2023-07-20T06:13:01;6.63;;;4.55;;
78143;SDS011;67394;52.522;13.622;2023-07-20T06:15:32;6.15;;;3.75;;
78143;SDS011;67394;52.522;13.622;2023-07-20T06:17:59;5.15;;;4.18;;
78143;SDS011;67394;52.522;13.622;2023-07-20T06:20:26;7.07;;;4.22;;
78143;SDS011;67394;52.522;13.622;2023-07-20T06:22:52;4.65;;;3.72;;
78143;SDS011;67394;52.522;13.622;2023-07-20T06:25:19;6.38;;;4.70;;
78143;SDS011;67394;52.522;13.622;2023-07-20T06:27:45;5.18;;;3.65;;
78143;SDS011;67394;52.522;13.622;2023-07-20T06:30:11;4.13;;;3.35;;
78143;SDS011;67394;52.522;13.622;2023-07-20T06:32:38;6.35;;;3.33;;
78143;SDS011;67394;52.522;13.622;2023-07-20T06:35:05;4.80;;;3.70;;
78143;SDS011;67394;52.522;13.622;2023-07-20T06:37:31;4.60;;;2.95;;
78143;SDS011;67394;52.522;13.622;2023-07-20T06:39:58;4.53;;;3.17;;
78143;SDS011;67394;52.522;13.622;2023-07-20T06:42:27;4.03;;;2.88;;
78143;SDS011;67394;52.522;13.622;2023-07-20T06:45:13;4.57;;;3.30;;
78143;SDS011;67394;52.522;13.622;2023-07-20T06:47:40;4.18;;;3.45;;
78143;SDS011;67394;52.522;13.622;2023-07-20T06:50:07;5.65;;;3.35;;
78143;SDS011;67394;52.522;13.622;2023-07-20T06:52:34;5.05;;;3.60;;
78143;SDS011;67394;52.522;13.622;2023-07-20T06:55:10;5.30;;;3.65;;
78143;SDS011;67394;52.522;13.622;2023-07-20T06:57:37;5.32;;;3.60;;
78143;SDS011;67394;52.522;13.622;2023-07-20T07:00:03;6.15;;;3.85;;
78143;SDS011;67394;52.522;13.622;2023-07-20T07:02:30;4.15;;;3.47;;
78143;SDS011;67394;52.522;13.622;2023-07-20T07:04:57;4.07;;;3.10;;
78143;SDS011;67394;52.522;13.622;2023-07-20T07:07:43;3.40;;;2.72;;
78143;SDS011;67394;52.522;13.622;2023-07-20T07:10:10;3.13;;;2.83;;
78143;SDS011;67394;52.522;13.622;2023-07-20T07:12:37;4.45;;;2.88;;
78143;SDS011;67394;52.522;13.622;2023-07-20T07:15:04;4.68;;;2.75;;
78143;SDS011;67394;52.522;13.622;2023-07-20T07:17:31;3.35;;;2.72;;
78143;SDS011;67394;52.522;13.622;2023-07-20T07:20:00;3.13;;;2.33;;
78143;SDS011;67394;52.522;13.622;2023-07-20T07:22:26;6.32;;;2.50;;
78143;SDS011;67394;52.522;13.622;2023-07-20T07:24:53;3.78;;;2.28;;
78143;SDS011;67394;52.522;13.622;2023-07-20T07:27:19;2.72;;;2.13;;
78143;SDS011;67394;52.522;13.622;2023-07-20T07:29:46;2.50;;;2.13;;
78143;SDS011;67394;52.522;13.622;2023-07-20T07:32:12;2.70;;;2.00;;
78143;SDS011;67394;52.522;13.622;2023-07-20T07:34:38;3.67;;;2.10;;
78143;SDS011;67394;52.522;13.622;2023-07-20T07:37:05;3.72;;;2.10;;
78143;SDS011;67394;52.522;13.622;2023-07-20T07:39:31;3.08;;;2.42;;
78143;SDS011;67394;52.522;13.622;2023-07-20T07:42:01;2.55;;;1.77;;
78143;SDS011;67394;52.522;13.622;2023-07-20T07:44:27;2.40;;;1.70;;
78143;SDS011;67394;52.522;13.622;2023-07-20T07:46:54;3.60;;;1.80;;
78143;SDS011;67394;52.522;13.622;2023-07-20T07:49:20;3.20;;;1.92;;
78143;SDS011;67394;52.522;13.622;2023-07-20T07:54:13;2.50;;;2.20;;
78143;SDS011;67394;52.522;13.622;2023-07-20T07:56:40;3.03;;;1.90;;
78143;SDS011;67394;52.522;13.622;2023-07-20T07:59:07;2.70;;;2.10;;
78143;SDS011;67394;52.522;13.622;2023-07-20T08:01:33;2.92;;;2.08;;
78143;SDS011;67394;52.522;13.622;2023-07-20T08:04:00;2.40;;;1.70;;
78143;SDS011;67394;52.522;13.622;2023-07-20T08:06:26;2.53;;;1.70;;
78143;SDS011;67394;52.522;13.622;2023-07-20T08:08:53;2.88;;;2.08;;
78143;SDS011;67394;52.522;13.622;2023-07-20T08:11:19;2.95;;;1.65;;
78143;SDS011;67394;52.522;13.622;2023-07-20T08:13:45;2.72;;;1.70;;
78143;SDS011;67394;52.522;13.622;2023-07-20T08:16:12;1.80;;;1.48;;
78143;SDS011;67394;52.522;13.622;2023-07-20T08:18:39;2.47;;;1.60;;
78143;SDS011;67394;52.522;13.622;2023-07-20T08:21:05;1.67;;;1.33;;
78143;SDS011;67394;52.522;13.622;2023-07-20T08:23:32;1.30;;;1.13;;
78143;SDS011;67394;52.522;13.622;2023-07-20T08:25:58;1.45;;;1.27;;
78143;SDS011;67394;52.522;13.622;2023-07-20T08:28:25;1.98;;;1.50;;
78143;SDS011;67394;52.522;13.622;2023-07-20T08:30:51;1.90;;;1.40;;
78143;SDS011;67394;52.522;13.622;2023-07-20T08:33:18;1.92;;;1.40;;
78143;SDS011;67394;52.522;13.622;2023-07-20T08:35:45;3.33;;;1.20;;
78143;SDS011;67394;52.522;13.622;2023-07-20T08:38:12;3.60;;;1.45;;
78143;SDS011;67394;52.522;13.622;2023-07-20T08:40:39;1.65;;;1.35;;
78143;SDS011;67394;52.522;13.622;2023-07-20T08:43:10;2.45;;;1.70;;
78143;SDS011;67394;52.522;13.622;2023-07-20T08:45:38;2.30;;;1.52;;
78143;SDS011;67394;52.522;13.622;2023-07-20T08:48:06;1.73;;;1.40;;
78143;SDS011;67394;52.522;13.622;2023-07-20T08:50:33;1.73;;;1.33;;
78143;SDS011;67394;52.522;13.622;2023-07-20T08:53:01;1.75;;;1.30;;
78143;SDS011;67394;52.522;13.622;2023-07-20T08:55:28;1.60;;;1.20;;
78143;SDS011;67394;52.522;13.622;2023-07-20T08:57:55;1.77;;;1.15;;
78143;SDS011;67394;52.522;13.622;2023-07-20T09:00:24;1.85;;;1.30;;
78143;SDS011;67394;52.522;13.622;2023-07-20T09:02:52;1.83;;;1.30;;
78143;SDS011;67394;52.522;13.622;2023-07-20T09:05:21;1.27;;;0.90;;
78143;SDS011;67394;52.522;13.622;2023-07-20T09:07:51;2.00;;;1.40;;
78143;SDS011;67394;52.522;13.622;2023-07-20T09:10:21;2.35;;;1.30;;
78143;SDS011;67394;52.522;13.622;2023-07-20T09:12:49;2.80;;;1.50;;
78143;SDS011;67394;52.522;13.622;2023-07-20T09:15:16;5.00;;;1.20;;
78143;SDS011;67394;52.522;13.622;2023-07-20T09:17:46;1.17;;;1.08;;
78143;SDS011;67394;52.522;13.622;2023-07-20T09:20:14;2.00;;;1.25;;
78143;SDS011;67394;52.522;13.622;2023-07-20T09:22:41;3.72;;;1.50;;
78143;SDS011;67394;52.522;13.622;2023-07-20T09:25:15;1.27;;;0.98;;
78143;SDS011;67394;52.522;13.622;2023-07-20T09:27:46;1.17;;;0.77;;
78143;SDS011;67394;52.522;13.622;2023-07-20T09:30:15;1.70;;;1.00;;
78143;SDS011;67394;52.522;13.622;2023-07-20T09:32:46;1.63;;;0.90;;
78143;SDS011;67394;52.522;13.622;2023-07-20T09:35:20;1.30;;;0.90;;
78143;SDS011;67394;52.522;13.622;2023-07-20T09:37:51;1.42;;;1.20;;
78143;SDS011;67394;52.522;13.622;2023-07-20T09:40:40;1.73;;;1.15;;
78143;SDS011;67394;52.522;13.622;2023-07-20T09:43:10;0.80;;;0.80;;
78143;SDS011;67394;52.522;13.622;2023-07-20T09:45:40;1.67;;;1.00;;
78143;SDS011;67394;52.522;13.622;2023-07-20T09:48:10;0.88;;;0.80;;
78143;SDS011;67394;52.522;13.622;2023-07-20T09:50:41;1.88;;;1.00;;
78143;SDS011;67394;52.522;13.622;2023-07-20T09:53:11;1.15;;;1.05;;
78143;SDS011;67394;52.522;13.622;2023-07-20T09:55:39;1.60;;;1.05;;
78143;SDS011;67394;52.522;13.622;2023-07-20T09:58:08;1.08;;;0.90;;
78143;SDS011;67394;52.522;13.622;2023-07-20T10:00:38;1.98;;;1.17;;
78143;SDS011;67394;52.522;13.622;2023-07-20T10:03:08;1.83;;;1.27;;
78143;SDS011;67394;52.522;13.622;2023-07-20T10:05:39;0.95;;;0.90;;
78143;SDS011;67394;52.522;13.622;2023-07-20T10:08:10;1.23;;;1.02;;
78143;SDS011;67394;52.522;13.622;2023-07-20T10:10:41;1.38;;;1.00;;
78143;SDS011;67394;52.522;13.622;2023-07-20T10:13:10;1.45;;;1.27;;
78143;SDS011;67394;52.522;13.622;2023-07-20T10:15:46;1.75;;;1.00;;
78143;SDS011;67394;52.522;13.622;2023-07-20T10:18:19;1.73;;;1.02;;
78143;SDS011;67394;52.522;13.622;2023-07-20T10:20:51;1.10;;;1.00;;
78143;SDS011;67394;52.522;13.622;2023-07-20T10:23:23;1.73;;;1.20;;
78143;SDS011;67394;52.522;13.622;2023-07-20T10:25:50;0.95;;;0.90;;
78143;SDS011;67394;52.522;13.622;2023-07-20T10:28:17;1.80;;;1.40;;
78143;SDS011;67394;52.522;13.622;2023-07-20T10:30:43;1.30;;;1.10;;
78143;SDS011;67394;52.522;13.622;2023-07-20T10:33:10;1.85;;;1.10;;
78143;SDS011;67394;52.522;13.622;2023-07-20T10:35:56;2.05;;;1.17;;
78143;SDS011;67394;52.522;13.622;2023-07-20T10:38:52;1.17;;;1.00;;
78143;SDS011;67394;52.522;13.622;2023-07-20T10:41:20;1.77;;;1.05;;
78143;SDS011;67394;52.522;13.622;2023-07-20T10:44:03;1.23;;;0.98;;
78143;SDS011;67394;52.522;13.622;2023-07-20T10:49:07;2.60;;;1.35;;
78143;SDS011;67394;52.522;13.622;2023-07-20T10:51:41;1.20;;;1.02;;
78143;SDS011;67394;52.522;13.622;2023-07-20T10:54:54;1.55;;;1.20;;
78143;SDS011;67394;52.522;13.622;2023-07-20T10:56:55;1.42;;;1.00;;
78143;SDS011;67394;52.522;13.622;2023-07-20T11:01:49;1.58;;;0.95;;
78143;SDS011;67394;52.522;13.622;2023-07-20T11:04:37;3.40;;;1.40;;
78143;SDS011;67394;52.522;13.622;2023-07-20T11:07:07;1.40;;;1.10;;
78143;SDS011;67394;52.522;13.622;2023-07-20T11:09:37;1.90;;;1.10;;
78143;SDS011;67394;52.522;13.622;2023-07-20T11:14:40;1.13;;;1.02;;
78143;SDS011;67394;52.522;13.622;2023-07-20T11:17:14;3.17;;;1.88;;
78143;SDS011;67394;52.522;13.622;2023-07-20T11:19:44;1.92;;;1.10;;
78143;SDS011;67394;52.522;13.622;2023-07-20T11:22:17;1.00;;;0.80;;
78143;SDS011;67394;52.522;13.622;2023-07-20T11:24:45;2.53;;;1.10;;
78143;SDS011;67394;52.522;13.622;2023-07-20T11:27:11;1.50;;;1.15;;
78143;SDS011;67394;52.522;13.622;2023-07-20T11:29:38;1.10;;;1.00;;
78143;SDS011;67394;52.522;13.622;2023-07-20T11:32:04;1.48;;;1.05;;
78143;SDS011;67394;52.522;13.622;2023-07-20T11:34:33;1.25;;;1.00;;
78143;SDS011;67394;52.522;13.622;2023-07-20T11:37:01;1.30;;;1.08;;
78143;SDS011;67394;52.522;13.622;2023-07-20T11:39:31;1.48;;;1.10;;
78143;SDS011;67394;52.522;13.622;2023-07-20T11:41:58;1.67;;;0.98;;
78143;SDS011;67394;52.522;13.622;2023-07-20T11:44:25;1.50;;;1.15;;
78143;SDS011;67394;52.522;13.622;2023-07-20T11:47:09;2.55;;;1.20;;
78143;SDS011;67394;52.522;13.622;2023-07-20T11:52:08;1.42;;;1.20;;
78143;SDS011;67394;52.522;13.622;2023-07-20T11:57:17;1.35;;;1.13;;
78143;SDS011;67394;52.522;13.622;2023-07-20T11:59:56;1.52;;;1.10;;
78143;SDS011;67394;52.522;13.622;2023-07-20T12:02:24;1.45;;;1.02;;
78143;SDS011;67394;52.522;13.622;2023-07-20T12:04:56;3.83;;;1.25;;
78143;SDS011;67394;52.522;13.622;2023-07-20T12:07:25;1.40;;;1.17;;
78143;SDS011;67394;52.522;13.622;2023-07-20T12:12:39;1.38;;;0.98;;
78143;SDS011;67394;52.522;13.622;2023-07-20T12:15:16;0.98;;;0.90;;
78143;SDS011;67394;52.522;13.622;2023-07-20T12:17:46;1.42;;;1.10;;
78143;SDS011;67394;52.522;13.622;2023-07-20T12:20:26;1.50;;;1.02;;
78143;SDS011;67394;52.522;13.622;2023-07-20T12:23:00;2.22;;;1.17;;
78143;SDS011;67394;52.522;13.622;2023-07-20T12:28:14;1.02;;;0.93;;
78143;SDS011;67394;52.522;13.622;2023-07-20T12:30:43;1.67;;;0.88;;
78143;SDS011;67394;52.522;13.622;2023-07-20T12:33:11;1.10;;;1.00;;
78143;SDS011;67394;52.522;13.622;2023-07-20T12:35:37;1.30;;;0.85;;
78143;SDS011;67394;52.522;13.622;2023-07-20T12:38:04;1.05;;;0.98;;
78143;SDS011;67394;52.522;13.622;2023-07-20T12:40:30;1.13;;;1.00;;
78143;SDS011;67394;52.522;13.622;2023-07-20T12:42:57;1.10;;;0.80;;
78143;SDS011;67394;52.522;13.622;2023-07-20T12:45:24;0.90;;;0.80;;
78143;SDS011;67394;52.522;13.622;2023-07-20T12:47:50;1.33;;;0.55;;
78143;SDS011;67394;52.522;13.622;2023-07-20T12:50:17;1.35;;;0.85;;
78143;SDS011;67394;52.522;13.622;2023-07-20T12:52:43;2.28;;;1.25;;
78143;SDS011;67394;52.522;13.622;2023-07-20T12:55:10;1.92;;;1.10;;
78143;SDS011;67394;52.522;13.622;2023-07-20T12:57:37;0.90;;;0.70;;
78143;SDS011;67394;52.522;13.622;2023-07-20T13:00:06;0.93;;;0.80;;
78143;SDS011;67394;52.522;13.622;2023-07-20T13:02:33;1.13;;;1.00;;
78143;SDS011;67394;52.522;13.622;2023-07-20T13:04:59;0.70;;;0.70;;
78143;SDS011;67394;52.522;13.622;2023-07-20T13:07:29;0.85;;;0.75;;
78143;SDS011;67394;52.522;13.622;2023-07-20T13:10:00;1.05;;;0.90;;
78143;SDS011;67394;52.522;13.622;2023-07-20T13:12:31;1.00;;;0.88;;
78143;SDS011;67394;52.522;13.622;2023-07-20T13:14:58;0.88;;;0.80;;
78143;SDS011;67394;52.522;13.622;2023-07-20T13:17:26;1.10;;;0.80;;
78143;SDS011;67394;52.522;13.622;2023-07-20T13:19:54;1.00;;;0.90;;
78143;SDS011;67394;52.522;13.622;2023-07-20T13:22:22;1.05;;;0.80;;
78143;SDS011;67394;52.522;13.622;2023-07-20T13:24:48;1.30;;;1.08;;
78143;SDS011;67394;52.522;13.622;2023-07-20T13:29:42;1.35;;;1.02;;
78143;SDS011;67394;52.522;13.622;2023-07-20T13:32:08;1.00;;;0.90;;
78143;SDS011;67394;52.522;13.622;2023-07-20T13:37:03;0.88;;;0.88;;
78143;SDS011;67394;52.522;13.622;2023-07-20T13:41:56;0.85;;;0.85;;
78143;SDS011;67394;52.522;13.622;2023-07-20T13:44:22;2.30;;;0.80;;
78143;SDS011;67394;52.522;13.622;2023-07-20T13:46:49;1.50;;;0.90;;
78143;SDS011;67394;52.522;13.622;2023-07-20T13:49:16;1.15;;;0.80;;
78143;SDS011;67394;52.522;13.622;2023-07-20T13:54:35;1.65;;;0.90;;
78143;SDS011;67394;52.522;13.622;2023-07-20T13:57:02;0.88;;;0.82;;
78143;SDS011;67394;52.522;13.622;2023-07-20T14:01:55;0.85;;;0.82;;
78143;SDS011;67394;52.522;13.622;2023-07-20T14:04:24;0.77;;;0.77;;
78143;SDS011;67394;52.522;13.622;2023-07-20T14:06:51;1.10;;;0.90;;
78143;SDS011;67394;52.522;13.622;2023-07-20T14:09:18;1.20;;;1.00;;
78143;SDS011;67394;52.522;13.622;2023-07-20T14:11:44;1.20;;;0.90;;
78143;SDS011;67394;52.522;13.622;2023-07-20T14:14:13;1.10;;;1.00;;
78143;SDS011;67394;52.522;13.622;2023-07-20T14:16:40;1.13;;;0.88;;
78143;SDS011;67394;52.522;13.622;2023-07-20T14:19:06;1.00;;;0.90;;
78143;SDS011;67394;52.522;13.622;2023-07-20T14:21:33;1.10;;;0.98;;
78143;SDS011;67394;52.522;13.622;2023-07-20T14:23:59;0.60;;;0.60;;
78143;SDS011;67394;52.522;13.622;2023-07-20T14:26:27;0.85;;;0.80;;
78143;SDS011;67394;52.522;13.622;2023-07-20T14:28:54;1.88;;;1.02;;
78143;SDS011;67394;52.522;13.622;2023-07-20T14:31:20;0.70;;;0.70;;
78143;SDS011;67394;52.522;13.622;2023-07-20T14:33:46;1.20;;;0.77;;
78143;SDS011;67394;52.522;13.622;2023-07-20T14:36:13;1.48;;;1.10;;
78143;SDS011;67394;52.522;13.622;2023-07-20T14:38:39;1.38;;;0.90;;
78143;SDS011;67394;52.522;13.622;2023-07-20T14:41:06;1.65;;;1.00;;
78143;SDS011;67394;52.522;13.622;2023-07-20T14:43:33;1.48;;;1.00;;
78143;SDS011;67394;52.522;13.622;2023-07-20T14:45:59;1.00;;;0.93;;
78143;SDS011;67394;52.522;13.622;2023-07-20T14:48:26;1.38;;;1.10;;
78143;SDS011;67394;52.522;13.622;2023-07-20T14:50:52;1.17;;;0.90;;
78143;SDS011;67394;52.522;13.622;2023-07-20T14:53:30;1.00;;;0.88;;
78143;SDS011;67394;52.522;13.622;2023-07-20T14:56:00;1.58;;;0.77;;
78143;SDS011;67394;52.522;13.622;2023-07-20T14:58:27;0.82;;;0.77;;
78143;SDS011;67394;52.522;13.622;2023-07-20T15:00:53;1.23;;;0.93;;
78143;SDS011;67394;52.522;13.622;2023-07-20T15:03:20;1.25;;;0.98;;
78143;SDS011;67394;52.522;13.622;2023-07-20T15:05:47;1.40;;;1.30;;
78143;SDS011;67394;52.522;13.622;2023-07-20T15:08:13;1.20;;;1.08;;
78143;SDS011;67394;52.522;13.622;2023-07-20T15:10:40;1.50;;;1.00;;
78143;SDS011;67394;52.522;13.622;2023-07-20T15:13:06;2.75;;;0.90;;
78143;SDS011;67394;52.522;13.622;2023-07-20T15:15:32;0.98;;;0.88;;
78143;SDS011;67394;52.522;13.622;2023-07-20T15:17:59;0.85;;;0.85;;
78143;SDS011;67394;52.522;13.622;2023-07-20T15:20:25;2.60;;;1.00;;
78143;SDS011;67394;52.522;13.622;2023-07-20T15:25:18;2.85;;;0.90;;
78143;SDS011;67394;52.522;13.622;2023-07-20T15:27:45;1.05;;;0.95;;
78143;SDS011;67394;52.522;13.622;2023-07-20T15:30:16;1.08;;;0.98;;
78143;SDS011;67394;52.522;13.622;2023-07-20T15:32:46;0.82;;;0.82;;
78143;SDS011;67394;52.522;13.622;2023-07-20T15:35:16;1.55;;;0.90;;